createdAt,value
2019-03-08T00:00:59.415Z,0.90
2019-03-08T00:03:02.436Z,0.70
2019-03-08T00:05:05.350Z,0.70
2019-03-08T00:07:09.073Z,0.80
2019-03-08T00:09:12.073Z,0.97
2019-03-08T00:11:15.428Z,0.70
2019-03-08T00:13:19.443Z,1.00
2019-03-08T00:15:22.606Z,0.63
2019-03-08T00:17:25.483Z,0.67
2019-03-08T00:19:28.364Z,1.47
2019-03-08T00:21:32.055Z,0.73
2019-03-08T00:23:34.963Z,0.70
2019-03-08T00:25:37.918Z,0.90
2019-03-08T00:27:41.009Z,1.10
2019-03-08T00:29:45.162Z,0.90
2019-03-08T00:31:48.637Z,1.43
2019-03-08T00:33:52.307Z,1.10
2019-03-08T00:35:55.183Z,0.83
2019-03-08T00:37:58.202Z,0.93
2019-03-08T00:40:02.494Z,0.80
2019-03-08T00:42:05.365Z,0.80
2019-03-08T00:44:09.755Z,0.73
2019-03-08T00:46:12.659Z,0.90
2019-03-08T00:48:15.549Z,0.97
2019-03-08T00:50:18.532Z,1.00
2019-03-08T00:52:21.514Z,0.70
2019-03-08T00:54:24.507Z,0.80
2019-03-08T00:56:27.460Z,0.60
2019-03-08T00:58:30.362Z,0.70
2019-03-08T01:00:33.240Z,0.93
2019-03-08T01:02:36.924Z,2.33
2019-03-08T01:04:39.836Z,1.00
2019-03-08T01:06:42.807Z,0.98
2019-03-08T01:08:46.634Z,0.70
2019-03-08T01:10:50.613Z,1.10
2019-03-08T01:12:53.488Z,0.70
2019-03-08T01:14:56.404Z,0.90
2019-03-08T01:17:00.656Z,0.73
2019-03-08T01:19:03.702Z,0.80
2019-03-08T01:21:07.342Z,0.83
2019-03-08T01:23:10.483Z,0.90
2019-03-08T01:25:14.112Z,1.00
2019-03-08T01:27:16.996Z,0.90
2019-03-08T01:29:19.919Z,1.07
2019-03-08T01:31:22.817Z,0.90
2019-03-08T01:33:25.693Z,1.00
2019-03-08T01:35:28.709Z,0.70
2019-03-08T01:37:31.583Z,1.10
2019-03-08T01:39:34.469Z,1.07
2019-03-08T01:41:37.440Z,0.80
2019-03-08T01:43:41.076Z,0.80
2019-03-08T01:45:44.768Z,0.50
2019-03-08T01:47:47.693Z,0.70
2019-03-08T01:49:50.568Z,0.60
2019-03-08T01:51:53.681Z,1.03
2019-03-08T01:53:57.372Z,1.23
2019-03-08T01:56:00.361Z,0.60
2019-03-08T01:58:04.811Z,0.83
2019-03-08T02:00:10.754Z,0.80
2019-03-08T02:02:13.344Z,0.80
2019-03-08T02:04:16.235Z,0.77
2019-03-08T02:06:19.155Z,0.90
2019-03-08T02:08:22.051Z,0.60
2019-03-08T02:10:25.703Z,0.93
2019-03-08T02:12:29.329Z,1.03
2019-03-08T02:14:32.980Z,0.63
2019-03-08T02:16:35.871Z,0.50
2019-03-08T02:18:38.890Z,0.93
2019-03-08T02:20:43.275Z,0.73
2019-03-08T02:22:46.165Z,0.87
2019-03-08T02:24:49.089Z,0.93
2019-03-08T02:26:52.760Z,0.50
2019-03-08T02:28:55.875Z,0.70
2019-03-08T02:30:59.550Z,0.70
2019-03-08T02:33:02.456Z,0.67
2019-03-08T02:35:06.132Z,0.53
2019-03-08T02:37:09.138Z,0.70
2019-03-08T02:39:12.791Z,0.93
2019-03-08T02:41:16.640Z,0.60
2019-03-08T02:43:20.314Z,0.80
2019-03-08T02:45:23.200Z,0.60
2019-03-08T02:47:27.567Z,0.77
2019-03-08T02:49:30.496Z,1.10
2019-03-08T02:51:34.148Z,0.60
2019-03-08T02:53:37.098Z,0.70
2019-03-08T02:55:40.879Z,0.80
2019-03-08T02:57:44.548Z,0.80
2019-03-08T02:59:47.996Z,0.90
2019-03-08T03:01:50.977Z,0.60
2019-03-08T03:03:54.621Z,0.90
2019-03-08T03:05:57.509Z,0.80
2019-03-08T03:08:00.511Z,0.73
2019-03-08T03:10:05.759Z,1.20
2019-03-08T03:12:08.743Z,0.85
2019-03-08T03:14:12.562Z,0.67
2019-03-08T03:16:16.204Z,0.73
2019-03-08T03:18:19.099Z,1.00
2019-03-08T03:20:21.997Z,0.80
2019-03-08T03:22:24.876Z,1.10
2019-03-08T03:24:27.760Z,1.00
2019-03-08T03:26:31.063Z,0.90
2019-03-08T03:28:35.358Z,0.70
2019-03-08T03:30:38.236Z,0.80
2019-03-08T03:32:41.424Z,1.10
2019-03-08T03:34:44.308Z,1.33
2019-03-08T03:36:47.200Z,0.97
2019-03-08T03:38:51.204Z,1.20
2019-03-08T03:40:54.960Z,0.97
2019-03-08T03:42:58.946Z,0.80
2019-03-08T03:45:01.860Z,1.17
2019-03-08T03:47:04.789Z,1.00
2019-03-08T03:49:07.676Z,1.40
2019-03-08T03:51:11.341Z,1.17
2019-03-08T03:53:14.500Z,1.17
2019-03-08T03:55:17.414Z,1.00
2019-03-08T03:57:20.612Z,1.23
2019-03-08T03:59:24.265Z,0.97
2019-03-08T04:01:27.136Z,1.40
2019-03-08T04:03:30.038Z,0.90
2019-03-08T04:05:33.724Z,1.07
2019-03-08T04:07:37.607Z,1.00
2019-03-08T04:09:40.565Z,1.30
2019-03-08T04:11:44.215Z,1.50
2019-03-08T04:13:47.877Z,0.83
2019-03-08T04:15:51.533Z,1.00
2019-03-08T04:17:55.043Z,1.47
2019-03-08T04:19:58.025Z,1.10
2019-03-08T04:22:00.928Z,1.20
2019-03-08T04:24:04.580Z,1.20
2019-03-08T04:26:07.794Z,1.17
2019-03-08T04:28:10.781Z,1.20
2019-03-08T04:30:15.185Z,1.67
2019-03-08T04:32:18.071Z,1.30
2019-03-08T04:34:21.979Z,1.23
2019-03-08T04:36:25.093Z,1.30
2019-03-08T04:38:28.768Z,1.33
2019-03-08T04:40:32.878Z,1.17
2019-03-08T04:42:35.799Z,1.57
2019-03-08T04:44:38.696Z,1.37
2019-03-08T04:46:41.955Z,1.20
2019-03-08T04:48:45.615Z,1.10
2019-03-08T04:50:48.534Z,0.80
2019-03-08T04:52:52.440Z,0.90
2019-03-08T04:54:56.088Z,1.30
2019-03-08T04:56:58.975Z,1.30
2019-03-08T04:59:02.093Z,1.00
2019-03-08T05:01:05.751Z,1.73
2019-03-08T05:03:08.764Z,1.10
2019-03-08T05:05:13.308Z,1.33
2019-03-08T05:07:17.276Z,1.30
2019-03-08T05:09:20.200Z,1.30
2019-03-08T05:11:23.836Z,1.40
2019-03-08T05:13:26.749Z,1.50
2019-03-08T05:15:30.757Z,1.12
2019-03-08T05:17:34.428Z,1.60
2019-03-08T05:19:37.334Z,1.50
2019-03-08T05:21:41.144Z,1.43
2019-03-08T05:23:45.420Z,1.17
2019-03-08T05:25:48.336Z,1.03
2019-03-08T05:27:52.352Z,1.57
2019-03-08T05:29:56.050Z,1.90
2019-03-08T05:31:59.707Z,1.67
2019-03-08T05:34:03.484Z,1.30
2019-03-08T05:36:06.386Z,1.83
2019-03-08T05:38:09.275Z,1.43
2019-03-08T05:40:12.288Z,1.20
2019-03-08T05:42:15.963Z,1.33
2019-03-08T05:44:18.897Z,0.82
2019-03-08T05:46:21.877Z,1.33
2019-03-08T05:48:26.493Z,1.10
2019-03-08T05:50:29.967Z,1.65
2019-03-08T05:52:32.928Z,1.30
2019-03-08T05:54:35.799Z,1.30
2019-03-08T05:56:38.811Z,1.73
2019-03-08T05:58:42.132Z,1.47
2019-03-08T06:00:45.967Z,1.43
2019-03-08T06:02:49.035Z,1.47
2019-03-08T06:04:51.927Z,1.40
2019-03-08T06:06:54.819Z,1.57
2019-03-08T06:08:57.728Z,1.97
2019-03-08T06:11:00.624Z,3.30
2019-03-08T06:13:04.327Z,1.30
2019-03-08T06:15:07.607Z,1.87
2019-03-08T06:17:11.303Z,1.67
2019-03-08T06:19:14.993Z,1.87
2019-03-08T06:21:17.916Z,2.00
2019-03-08T06:23:21.593Z,2.40
2019-03-08T06:25:25.259Z,1.77
2019-03-08T06:27:28.210Z,1.57
2019-03-08T06:29:31.100Z,1.37
2019-03-08T06:31:33.996Z,1.77
2019-03-08T06:33:37.388Z,1.53
2019-03-08T06:35:40.290Z,2.17
2019-03-08T06:37:43.197Z,1.60
2019-03-08T06:39:47.118Z,1.20
2019-03-08T06:41:50.176Z,1.15
2019-03-08T06:43:53.932Z,1.40
2019-03-08T06:45:56.859Z,1.70
2019-03-08T06:48:00.524Z,1.17
2019-03-08T06:50:03.451Z,1.73
2019-03-08T06:52:06.760Z,1.23
2019-03-08T06:54:10.455Z,1.83
2019-03-08T06:56:14.580Z,2.03
2019-03-08T06:58:17.485Z,1.10
2019-03-08T07:00:31.049Z,0.90
2019-03-08T07:02:33.930Z,1.27
2019-03-08T07:04:38.881Z,1.70
2019-03-08T07:06:42.919Z,1.50
2019-03-08T07:08:45.817Z,0.83
2019-03-08T07:10:48.761Z,1.10
2019-03-08T07:12:52.412Z,1.77
2019-03-08T07:14:56.145Z,1.00
2019-03-08T07:17:00.562Z,1.47
2019-03-08T07:19:04.252Z,1.00
2019-03-08T07:21:08.516Z,1.20
2019-03-08T07:23:13.295Z,1.07
2019-03-08T07:25:23.379Z,1.23
2019-03-08T07:27:26.757Z,0.90
2019-03-08T07:29:31.295Z,1.10
2019-03-08T07:31:38.011Z,2.03
2019-03-08T07:33:52.953Z,1.60
2019-03-08T07:36:03.515Z,1.00
2019-03-08T07:38:08.888Z,1.50
2019-03-08T07:40:15.773Z,1.23
2019-03-08T07:42:33.004Z,1.30
2019-03-08T07:44:37.126Z,1.27
2019-03-08T07:46:45.776Z,1.10
2019-03-08T07:49:03.557Z,1.70
2019-03-08T07:51:08.103Z,1.27
2019-03-08T07:53:12.624Z,2.07
2019-03-08T07:55:21.489Z,1.20
2019-03-08T07:57:30.214Z,1.50
2019-03-08T07:59:53.563Z,1.20
2019-03-08T08:01:52.731Z,0.90
2019-03-08T08:03:55.612Z,1.13
2019-03-08T08:06:02.068Z,1.47
2019-03-08T08:08:05.551Z,1.43
2019-03-08T08:10:13.262Z,1.10
2019-03-08T08:12:17.795Z,1.77
2019-03-08T08:14:21.557Z,0.90
2019-03-08T08:16:27.394Z,1.10
2019-03-08T08:18:42.099Z,1.83
2019-03-08T08:21:01.125Z,1.40
2019-03-08T08:23:04.914Z,1.53
2019-03-08T08:25:08.306Z,1.47
2019-03-08T08:27:12.789Z,1.08
2019-03-08T08:29:17.162Z,1.47
2019-03-08T08:31:25.257Z,1.60
2019-03-08T08:33:44.931Z,1.43
2019-03-08T08:35:48.591Z,1.13
2019-03-08T08:37:57.207Z,1.97
2019-03-08T08:40:04.310Z,1.43
2019-03-08T08:42:10.840Z,1.40
2019-03-08T08:44:13.758Z,1.93
2019-03-08T08:46:19.596Z,1.97
2019-03-08T08:48:26.743Z,2.30
2019-03-08T08:50:35.761Z,1.17
2019-03-08T08:52:38.141Z,1.03
2019-03-08T08:54:44.793Z,1.27
2019-03-08T08:56:51.729Z,1.03
2019-03-08T08:59:00.387Z,1.27
2019-03-08T09:01:18.947Z,1.50
2019-03-08T09:03:37.104Z,1.40
2019-03-08T09:05:39.979Z,1.40
2019-03-08T09:07:42.859Z,1.50
2019-03-08T09:10:00.563Z,1.30
2019-03-08T09:12:03.952Z,1.80
2019-03-08T09:14:06.827Z,1.30
2019-03-08T09:16:12.799Z,1.23
2019-03-08T09:18:31.396Z,1.33
2019-03-08T09:20:40.708Z,1.30
2019-03-08T09:22:44.380Z,1.03
2019-03-08T09:24:47.270Z,1.37
2019-03-08T09:26:56.033Z,1.70
2019-03-08T09:29:13.828Z,1.37
2019-03-08T09:31:19.369Z,1.07
2019-03-08T09:33:23.976Z,1.30
2019-03-08T09:35:37.731Z,1.70
2019-03-08T09:37:41.408Z,1.30
2019-03-08T09:39:50.072Z,1.70
2019-03-08T09:41:56.303Z,1.00
2019-03-08T09:44:00.412Z,1.40
2019-03-08T09:46:05.107Z,2.00
2019-03-08T09:48:13.855Z,1.53
2019-03-08T09:50:18.272Z,1.73
2019-03-08T09:52:22.790Z,1.73
2019-03-08T09:54:28.408Z,1.47
2019-03-08T09:56:32.932Z,1.43
2019-03-08T09:58:50.815Z,1.40
2019-03-08T10:00:58.202Z,1.50
2019-03-08T10:03:11.756Z,1.97
2019-03-08T10:05:32.529Z,2.00
2019-03-08T10:07:37.124Z,1.37
2019-03-08T10:09:42.481Z,1.50
2019-03-08T10:11:50.004Z,1.33
2019-03-08T10:13:55.296Z,1.13
2019-03-08T10:16:01.836Z,1.80
2019-03-08T10:18:07.301Z,1.40
2019-03-08T10:20:13.409Z,1.40
2019-03-08T10:22:32.113Z,1.67
2019-03-08T10:24:38.359Z,1.63
2019-03-08T10:26:51.240Z,1.80
2019-03-08T10:29:09.976Z,1.50
2019-03-08T10:31:27.731Z,1.30
2019-03-08T10:33:36.437Z,1.30
2019-03-08T10:35:43.760Z,1.13
2019-03-08T10:37:48.977Z,1.00
2019-03-08T10:39:57.510Z,1.43
2019-03-08T10:42:16.240Z,1.33
2019-03-08T10:44:19.128Z,1.00
2019-03-08T10:46:40.436Z,1.03
2019-03-08T10:48:43.920Z,2.00
2019-03-08T10:51:03.561Z,1.27
2019-03-08T10:53:06.960Z,1.43
2019-03-08T10:55:26.645Z,1.20
2019-03-08T10:57:36.128Z,1.37
2019-03-08T10:59:39.782Z,1.70
2019-03-08T11:01:48.228Z,1.57
2019-03-08T11:03:51.967Z,1.07
2019-03-08T11:05:56.051Z,0.80
2019-03-08T11:08:04.228Z,0.80
2019-03-08T11:10:09.560Z,1.60
2019-03-08T11:12:18.196Z,1.43
2019-03-08T11:14:26.828Z,1.30
2019-03-08T11:16:44.786Z,1.10
2019-03-08T11:19:08.655Z,0.90
2019-03-08T11:21:05.554Z,1.40
2019-03-08T11:23:14.096Z,1.37
2019-03-08T11:25:24.502Z,1.50
2019-03-08T11:27:33.972Z,1.37
2019-03-08T11:29:41.560Z,1.20
2019-03-08T11:31:59.503Z,1.40
2019-03-08T11:34:08.861Z,1.00
2019-03-08T11:36:30.252Z,0.93
2019-03-08T11:38:36.728Z,0.83
2019-03-08T11:40:47.972Z,1.03
2019-03-08T11:42:57.759Z,0.87
2019-03-08T11:45:05.464Z,0.82
2019-03-08T11:47:11.950Z,0.90
2019-03-08T11:49:21.371Z,1.00
2019-03-08T11:51:29.115Z,0.87
2019-03-08T11:53:55.887Z,0.80
2019-03-08T11:56:11.004Z,0.70
2019-03-08T11:58:29.755Z,0.77
2019-03-08T12:00:38.334Z,0.60
2019-03-08T12:02:46.914Z,0.80
2019-03-08T12:04:55.528Z,0.60
2019-03-08T12:06:58.412Z,0.90
2019-03-08T12:09:16.202Z,0.73
2019-03-08T12:11:36.636Z,0.68
2019-03-08T12:13:46.023Z,0.70
2019-03-08T12:16:00.278Z,0.60
2019-03-08T12:18:08.951Z,0.70
2019-03-08T12:20:15.360Z,0.90
2019-03-08T12:22:20.016Z,0.60
2019-03-08T12:24:38.975Z,0.53
2019-03-08T12:26:56.310Z,0.77
2019-03-08T12:29:04.969Z,0.60
2019-03-08T12:31:13.832Z,0.60
2019-03-08T12:33:22.447Z,0.73
2019-03-08T12:35:46.949Z,0.70
2019-03-08T12:37:50.879Z,0.60
2019-03-08T12:40:08.643Z,1.00
2019-03-08T12:42:17.215Z,0.70
2019-03-08T12:44:24.715Z,0.70
2019-03-08T12:46:48.417Z,0.90
2019-03-08T12:49:06.170Z,0.80
2019-03-08T12:51:20.925Z,0.90
2019-03-08T12:53:26.795Z,0.80
2019-03-08T12:55:36.016Z,0.63
2019-03-08T12:57:45.361Z,0.70
2019-03-08T12:59:50.988Z,0.70
2019-03-08T13:02:00.259Z,0.90
2019-03-08T13:04:03.672Z,0.70
2019-03-08T13:06:24.124Z,0.73
2019-03-08T13:08:39.598Z,0.90
2019-03-08T13:13:14.527Z,0.60
2019-03-08T13:23:13.505Z,0.63
2019-03-08T13:33:13.679Z,0.70
2019-03-08T13:35:31.512Z,0.50
2019-03-08T13:45:44.559Z,1.23
2019-03-08T13:48:03.929Z,0.83
2019-03-08T13:50:11.780Z,0.70
2019-03-08T13:55:37.542Z,0.80
2019-03-08T14:03:12.338Z,1.00
2019-03-08T14:13:11.591Z,0.60
2019-03-08T14:15:19.412Z,0.70
2019-03-08T14:23:14.318Z,0.70
2019-03-08T14:27:45.899Z,1.08
2019-03-08T14:29:48.804Z,0.80
2019-03-08T14:31:51.955Z,1.00
2019-03-08T14:33:55.043Z,0.87
2019-03-08T14:35:58.015Z,1.07
2019-03-08T14:38:00.894Z,0.93
2019-03-08T14:40:03.775Z,0.90
2019-03-08T14:42:06.690Z,1.10
2019-03-08T14:44:12.108Z,0.70
2019-03-08T14:46:30.672Z,0.80
2019-03-08T14:48:33.574Z,1.40
2019-03-08T14:50:37.009Z,0.90
2019-03-08T14:52:39.344Z,1.07
2019-03-08T14:54:46.307Z,1.00
2019-03-08T14:56:46.245Z,1.10
2019-03-08T14:58:49.246Z,1.33
2019-03-08T15:00:52.640Z,1.13
2019-03-08T15:02:56.280Z,1.17
2019-03-08T15:04:59.175Z,0.90
2019-03-08T15:07:04.592Z,1.37
2019-03-08T15:09:05.849Z,1.20
2019-03-08T15:11:08.740Z,1.10
2019-03-08T15:13:11.752Z,1.00
2019-03-08T15:15:15.827Z,1.00
2019-03-08T15:17:19.294Z,1.20
2019-03-08T15:19:22.253Z,0.93
2019-03-08T15:21:25.895Z,1.00
2019-03-08T15:23:28.787Z,1.27
2019-03-08T15:25:31.921Z,1.33
2019-03-08T15:27:35.556Z,1.30
2019-03-08T15:29:38.583Z,0.77
2019-03-08T15:31:43.367Z,1.40
2019-03-08T15:33:46.244Z,1.00
2019-03-08T15:35:49.541Z,1.47
2019-03-08T15:37:52.444Z,1.40
2019-03-08T15:39:55.329Z,1.07
2019-03-08T15:41:58.657Z,1.10
2019-03-08T15:44:01.193Z,1.10
2019-03-08T15:46:04.071Z,1.00
2019-03-08T15:48:07.007Z,1.20
2019-03-08T15:50:18.672Z,1.20
2019-03-08T15:52:21.596Z,1.10
2019-03-08T15:54:24.480Z,1.00
2019-03-08T15:56:27.385Z,1.27
2019-03-08T15:58:30.273Z,1.03
2019-03-08T16:00:33.156Z,1.17
2019-03-08T16:02:36.852Z,0.83
2019-03-08T16:04:39.832Z,1.40
2019-03-08T16:06:44.041Z,1.10
2019-03-08T16:08:46.822Z,1.03
2019-03-08T16:10:49.731Z,2.60
2019-03-08T16:12:53.373Z,0.97
2019-03-08T16:14:56.410Z,1.00
2019-03-08T16:17:00.094Z,1.23
2019-03-08T16:19:02.967Z,1.00
2019-03-08T16:21:05.977Z,1.40
2019-03-08T16:23:09.624Z,1.20
2019-03-08T16:25:12.504Z,2.00
2019-03-08T16:27:15.516Z,1.43
2019-03-08T16:29:20.732Z,1.57
2019-03-08T16:31:30.415Z,1.10
2019-03-08T16:33:37.016Z,1.00
2019-03-08T16:35:42.492Z,0.80
2019-03-08T16:37:47.228Z,0.73
2019-03-08T16:39:52.029Z,0.90
2019-03-08T16:42:00.495Z,0.90
2019-03-08T16:44:19.679Z,0.60
2019-03-08T16:46:24.135Z,0.80
2019-03-08T16:48:27.016Z,0.97
2019-03-08T16:50:30.568Z,0.90
2019-03-08T16:52:35.955Z,0.70
2019-03-08T16:54:49.515Z,1.10
2019-03-08T16:56:58.950Z,0.90
2019-03-08T16:59:20.435Z,0.73
2019-03-08T17:01:24.924Z,0.77
2019-03-08T17:03:29.244Z,0.70
2019-03-08T17:05:36.664Z,0.80
2019-03-08T17:07:55.399Z,0.60
2019-03-08T17:10:01.146Z,0.90
2019-03-08T17:12:06.515Z,0.67
2019-03-08T17:14:10.173Z,1.10
2019-03-08T17:16:18.701Z,0.90
2019-03-08T17:18:22.485Z,0.93
2019-03-08T17:20:27.320Z,1.00
2019-03-08T17:22:31.764Z,0.67
2019-03-08T17:24:38.547Z,1.00
2019-03-08T17:26:44.536Z,0.80
2019-03-08T17:29:08.138Z,0.80
2019-03-08T17:31:17.015Z,1.03
2019-03-08T17:33:19.937Z,0.77
2019-03-08T17:35:35.265Z,0.90
2019-03-08T17:37:46.700Z,0.77
2019-03-08T17:39:51.479Z,0.90
2019-03-08T17:42:00.204Z,0.73
2019-03-08T17:44:08.851Z,0.70
2019-03-08T17:46:26.722Z,1.40
2019-03-08T17:48:32.999Z,1.43
2019-03-08T17:50:36.255Z,1.50
2019-03-08T17:52:44.689Z,1.10
2019-03-08T17:55:00.325Z,1.00
2019-03-08T17:57:17.952Z,1.10
2019-03-08T17:59:27.381Z,1.90
2019-03-08T18:01:33.117Z,1.43
2019-03-08T18:03:39.268Z,1.40
2019-03-08T18:05:46.680Z,1.27
2019-03-08T18:07:52.071Z,1.60
2019-03-08T18:10:02.310Z,1.30
2019-03-08T18:12:12.399Z,1.80
2019-03-08T18:14:18.753Z,2.20
2019-03-08T18:16:37.728Z,1.80
2019-03-08T18:18:56.409Z,2.87
2019-03-08T18:21:01.975Z,1.60
2019-03-08T18:23:08.308Z,1.20
2019-03-08T18:25:13.136Z,2.00
2019-03-08T18:27:21.851Z,1.40
2019-03-08T18:29:25.394Z,1.40
2019-03-08T18:31:38.198Z,1.70
2019-03-08T18:33:41.080Z,2.00
2019-03-08T18:36:04.540Z,1.97
2019-03-08T18:38:14.993Z,1.33
2019-03-08T18:40:18.624Z,1.57
2019-03-08T18:42:28.292Z,1.37
2019-03-08T18:44:45.031Z,1.70
2019-03-08T18:46:48.688Z,1.70
2019-03-08T18:48:52.287Z,1.63
2019-03-08T18:51:10.827Z,1.90
2019-03-08T18:53:14.618Z,2.80
2019-03-08T18:55:28.284Z,1.90
2019-03-08T18:57:37.464Z,1.43
2019-03-08T18:59:42.856Z,1.50
2019-03-08T19:01:52.804Z,1.20
2019-03-08T19:03:55.683Z,2.17
2019-03-08T19:06:14.294Z,5.63
2019-03-08T19:08:35.197Z,3.50
2019-03-08T19:10:39.912Z,2.27
2019-03-08T19:12:46.890Z,1.60
2019-03-08T19:14:55.476Z,1.83
2019-03-08T19:17:15.866Z,1.90
2019-03-08T19:19:34.396Z,1.60
2019-03-08T19:21:39.120Z,1.53
2019-03-08T19:23:45.628Z,1.60
2019-03-08T19:25:48.536Z,1.43
2019-03-08T19:27:52.660Z,1.90
2019-03-08T19:29:59.067Z,2.40
2019-03-08T19:32:06.776Z,2.40
2019-03-08T19:34:21.416Z,2.30
2019-03-08T19:36:26.965Z,1.77
2019-03-08T19:38:29.851Z,2.40
2019-03-08T19:40:48.072Z,2.20
2019-03-08T19:42:52.642Z,2.63
2019-03-08T19:45:01.102Z,2.97
2019-03-08T19:47:25.843Z,2.20
2019-03-08T19:49:32.440Z,2.80
2019-03-08T19:51:41.102Z,2.53
2019-03-08T19:53:45.628Z,2.17
2019-03-08T19:56:04.227Z,2.53
2019-03-08T19:58:12.793Z,2.30
2019-03-08T20:00:16.638Z,2.53
2019-03-08T20:02:20.396Z,2.00
2019-03-08T20:04:38.405Z,2.13
2019-03-08T20:06:44.975Z,1.67
2019-03-08T20:09:04.462Z,2.00
2019-03-08T20:11:11.086Z,2.30
2019-03-08T20:13:34.748Z,2.13
2019-03-08T20:15:39.425Z,1.60
2019-03-08T20:17:44.840Z,1.70
2019-03-08T20:20:07.895Z,2.28
2019-03-08T20:22:15.243Z,1.07
2019-03-08T20:24:21.726Z,1.90
2019-03-08T20:26:26.330Z,1.63
2019-03-08T20:28:34.871Z,1.47
2019-03-08T20:30:40.555Z,1.80
2019-03-08T20:32:44.317Z,1.80
2019-03-08T20:34:47.960Z,1.40
2019-03-08T20:37:10.641Z,1.50
2019-03-08T20:39:19.096Z,2.07
2019-03-08T20:41:25.989Z,1.60
2019-03-08T20:43:32.420Z,1.70
2019-03-08T20:45:37.016Z,2.28
2019-03-08T20:47:40.241Z,1.27
2019-03-08T20:49:43.196Z,1.70
2019-03-08T20:51:47.537Z,1.43
2019-03-08T20:53:50.439Z,1.77
2019-03-08T20:55:54.301Z,1.47
2019-03-08T20:57:57.370Z,1.73
2019-03-08T21:00:00.350Z,1.30
2019-03-08T21:02:03.942Z,1.13
2019-03-08T21:04:06.833Z,1.80
2019-03-08T21:06:11.212Z,1.27
2019-03-08T21:08:14.095Z,1.80
2019-03-08T21:10:17.437Z,1.30
2019-03-08T21:12:21.636Z,1.27
2019-03-08T21:14:24.522Z,1.27
2019-03-08T21:16:28.315Z,1.73
2019-03-08T21:18:31.779Z,1.33
2019-03-08T21:20:34.675Z,1.10
2019-03-08T21:22:39.236Z,3.07
2019-03-08T21:24:42.879Z,1.80
2019-03-08T21:26:45.904Z,1.83
2019-03-08T21:28:50.029Z,1.40
2019-03-08T21:30:53.735Z,1.17
2019-03-08T21:32:57.361Z,1.17
2019-03-08T21:35:00.310Z,1.47
2019-03-08T21:37:03.160Z,1.10
2019-03-08T21:39:06.052Z,2.00
2019-03-08T21:41:09.848Z,1.70
2019-03-08T21:43:13.506Z,1.57
2019-03-08T21:45:16.464Z,1.30
2019-03-08T21:47:19.820Z,1.97
2019-03-08T21:49:23.484Z,1.40
2019-03-08T21:51:26.442Z,1.70
2019-03-08T21:53:29.421Z,1.63
2019-03-08T21:55:32.311Z,1.10
2019-03-08T21:57:35.804Z,1.47
2019-03-08T21:59:38.871Z,1.10
2019-03-08T22:01:42.572Z,1.40
2019-03-08T22:03:46.620Z,1.47
2019-03-08T22:05:49.536Z,1.00
2019-03-08T22:07:53.368Z,1.15
2019-03-08T22:10:08.066Z,0.90
2019-03-08T22:12:11.508Z,1.60
2019-03-08T22:14:15.388Z,1.80
2019-03-08T22:16:20.102Z,1.27
2019-03-08T22:18:23.184Z,1.20
2019-03-08T22:20:26.540Z,1.87
2019-03-08T22:22:29.809Z,1.10
2019-03-08T22:24:33.947Z,1.33
2019-03-08T22:26:36.836Z,1.70
2019-03-08T22:28:39.733Z,1.70
2019-03-08T22:30:42.648Z,1.67
2019-03-08T22:32:45.632Z,1.55
2019-03-08T22:34:49.323Z,1.20
2019-03-08T22:36:53.008Z,1.63
2019-03-08T22:38:55.928Z,1.60
2019-03-08T22:40:59.613Z,2.23
2019-03-08T22:43:03.454Z,2.23
2019-03-08T22:45:06.340Z,2.03
2019-03-08T22:47:09.652Z,2.00
2019-03-08T22:49:12.863Z,1.90
2019-03-08T22:51:15.738Z,1.90
2019-03-08T22:53:20.149Z,1.43
2019-03-08T22:55:23.059Z,1.30
2019-03-08T22:57:26.736Z,1.03
2019-03-08T22:59:29.727Z,1.53
2019-03-08T23:01:38.794Z,1.80
2019-03-08T23:03:41.798Z,1.43
2019-03-08T23:05:44.683Z,2.30
2019-03-08T23:07:48.413Z,1.60
2019-03-08T23:09:51.291Z,1.50
2019-03-08T23:11:54.239Z,1.62
2019-03-08T23:13:57.163Z,1.13
2019-03-08T23:16:00.818Z,1.73
2019-03-08T23:18:03.703Z,2.13
2019-03-08T23:20:06.621Z,1.40
2019-03-08T23:22:10.363Z,1.43
2019-03-08T23:24:13.253Z,1.43
2019-03-08T23:26:16.191Z,1.50
2019-03-08T23:28:29.751Z,1.43
2019-03-08T23:30:32.648Z,2.00
2019-03-08T23:32:35.597Z,1.27
2019-03-08T23:34:38.435Z,1.83
2019-03-08T23:36:41.373Z,1.97
2019-03-08T23:38:45.744Z,1.80
2019-03-08T23:40:48.636Z,1.53
2019-03-08T23:42:52.162Z,1.10
2019-03-08T23:44:55.831Z,1.63
2019-03-08T23:46:58.837Z,1.40
2019-03-08T23:49:02.480Z,1.40
2019-03-08T23:51:05.392Z,1.60
2019-03-08T23:53:08.314Z,1.90
2019-03-08T23:55:11.296Z,1.23
2019-03-08T23:57:14.967Z,1.53
2019-03-08T23:59:18.620Z,1.30
